Airport ID:KSMD
Update Time (UTC):21/10/2019 18:22
Wind Speed (Knots):10
Wind Direction (Magnetic):140
Temperature (°C):15.3
Dew Point (°C):15.4
Humidity (%):100
Altimeter (inHg):29.66
Density Altitude (Feet):
Visibility (Miles):9
Clouds (Hundreds of feet):BKN011 OVC019
Present Weather:
METAR:METAR KSMD 211820Z AUTO 14013KT 9SM BKN011 OVC019 15/15 A2966 RMK A01

The data displayed is for advisory purposes only and is not to be used for flight planning or operations.

This page is not automatically refreshed. Reload the page to see current data.